createdAt,value
2023-04-19T00:00:18.622Z,16.80
2023-04-19T00:02:49.610Z,17.93
2023-04-19T00:05:22.487Z,19.63
2023-04-19T00:07:51.063Z,16.90
2023-04-19T00:10:19.441Z,17.63
2023-04-19T00:12:47.809Z,17.80
2023-04-19T00:15:16.136Z,16.20
2023-04-19T00:17:44.816Z,18.77
2023-04-19T00:20:13.507Z,18.70
2023-04-19T00:22:43.263Z,16.73
2023-04-19T00:25:11.530Z,17.83
2023-04-19T00:27:39.654Z,17.27
2023-04-19T00:30:08.851Z,17.03
2023-04-19T00:32:37.047Z,17.13
2023-04-19T00:35:05.469Z,16.13
2023-04-19T00:37:33.713Z,17.33
2023-04-19T00:40:04.493Z,19.07
2023-04-19T00:42:33.649Z,16.03
2023-04-19T00:45:01.651Z,14.90
2023-04-19T00:47:30.310Z,18.23
2023-04-19T00:49:58.564Z,15.60
2023-04-19T00:52:27.500Z,16.77
2023-04-19T00:54:56.997Z,14.73
2023-04-19T00:57:26.707Z,16.00
2023-04-19T00:59:56.888Z,16.03
2023-04-19T01:02:25.317Z,16.33
2023-04-19T01:04:53.979Z,17.67
2023-04-19T01:07:22.066Z,19.13
2023-04-19T01:09:50.625Z,16.73
2023-04-19T01:12:18.832Z,14.07
2023-04-19T01:14:48.828Z,15.20
2023-04-19T01:17:18.439Z,17.23
2023-04-19T01:19:47.444Z,16.07
2023-04-19T01:22:19.896Z,13.30
2023-04-19T01:24:47.974Z,16.90
2023-04-19T01:27:17.621Z,15.20
2023-04-19T01:29:46.226Z,15.67
2023-04-19T01:32:14.599Z,15.03
2023-04-19T01:34:43.285Z,14.23
2023-04-19T01:37:11.596Z,16.97
2023-04-19T01:39:41.127Z,17.60
2023-04-19T01:42:09.344Z,15.50
2023-04-19T01:44:37.765Z,15.13
2023-04-19T01:47:07.078Z,19.30
2023-04-19T01:49:35.577Z,17.30
2023-04-19T01:52:03.689Z,16.77
2023-04-19T01:54:31.922Z,15.83
2023-04-19T01:57:01.595Z,16.87
2023-04-19T01:59:30.008Z,14.97
2023-04-19T02:01:58.156Z,15.40
2023-04-19T02:04:28.166Z,15.10
2023-04-19T02:06:56.264Z,15.33
2023-04-19T02:09:24.563Z,17.97
2023-04-19T02:11:52.714Z,15.80
2023-04-19T02:14:22.471Z,18.70
2023-04-19T02:16:50.692Z,17.43
2023-04-19T02:19:19.299Z,17.03
2023-04-19T02:21:48.880Z,17.53
2023-04-19T02:24:17.267Z,15.50
2023-04-19T02:26:45.860Z,18.90
2023-04-19T02:29:14.292Z,17.03
2023-04-19T02:31:45.705Z,15.73
2023-04-19T02:34:14.326Z,16.57
2023-04-19T02:36:42.543Z,17.23
2023-04-19T02:39:10.743Z,19.27
2023-04-19T02:41:39.123Z,18.77
2023-04-19T02:44:07.177Z,17.57
2023-04-19T02:46:35.477Z,16.37
2023-04-19T02:49:07.124Z,18.00
2023-04-19T02:51:35.438Z,18.47
2023-04-19T02:54:03.792Z,18.50
2023-04-19T02:56:31.928Z,19.10
2023-04-19T02:59:02.001Z,19.63
2023-04-19T03:01:30.647Z,18.90
2023-04-19T03:03:59.735Z,17.90
2023-04-19T03:06:30.027Z,18.67
2023-04-19T03:08:58.144Z,18.50
2023-04-19T03:11:26.573Z,18.27
2023-04-19T03:13:56.173Z,20.63
2023-04-19T03:16:26.720Z,17.67
2023-04-19T03:18:55.330Z,21.37
2023-04-19T03:21:27.509Z,17.43
2023-04-19T03:23:58.324Z,20.87
2023-04-19T03:26:27.196Z,17.93
2023-04-19T03:28:56.189Z,16.07
2023-04-19T03:31:24.691Z,17.97
2023-04-19T03:33:52.872Z,16.10
2023-04-19T03:36:20.902Z,18.83
2023-04-19T03:38:49.001Z,17.93
2023-04-19T03:41:22.900Z,15.73
2023-04-19T03:43:51.240Z,18.43
2023-04-19T03:46:21.648Z,18.03
2023-04-19T03:48:50.106Z,18.60
2023-04-19T03:51:18.518Z,16.43
2023-04-19T03:53:47.634Z,17.43
2023-04-19T03:56:16.048Z,16.63
2023-04-19T03:58:45.646Z,18.07
2023-04-19T04:01:22.240Z,16.37
2023-04-19T04:03:50.753Z,17.50
2023-04-19T04:06:19.234Z,15.27
2023-04-19T04:08:47.841Z,16.90
2023-04-19T04:11:16.006Z,16.37
2023-04-19T04:13:47.337Z,14.43
2023-04-19T04:16:15.502Z,16.43
2023-04-19T04:18:43.974Z,16.27
2023-04-19T04:21:12.127Z,12.87
2023-04-19T04:23:40.714Z,14.63
2023-04-19T04:26:10.176Z,13.83
2023-04-19T04:28:38.341Z,12.17
2023-04-19T04:31:13.264Z,11.83
2023-04-19T04:33:41.873Z,11.10
2023-04-19T04:36:12.137Z,13.03
2023-04-19T04:38:40.304Z,11.90
2023-04-19T04:41:08.954Z,10.33
2023-04-19T04:43:38.502Z,10.10
2023-04-19T04:46:09.203Z,9.43
2023-04-19T04:48:37.686Z,10.40
2023-04-19T04:51:06.158Z,9.73
2023-04-19T04:53:34.852Z,9.80
2023-04-19T04:56:03.275Z,9.03
2023-04-19T04:58:31.424Z,10.20
2023-04-19T05:01:00.204Z,7.63
2023-04-19T05:03:30.357Z,10.40
2023-04-19T05:05:58.436Z,9.53
2023-04-19T05:08:26.966Z,9.27
2023-04-19T05:10:55.450Z,7.47
2023-04-19T05:13:23.591Z,7.67
2023-04-19T05:15:51.622Z,7.33
2023-04-19T05:18:20.059Z,7.23
2023-04-19T05:20:49.790Z,9.17
2023-04-19T05:23:19.190Z,7.93
2023-04-19T05:25:47.886Z,12.63
2023-04-19T05:28:16.000Z,8.67
2023-04-19T05:30:44.248Z,6.83
2023-04-19T05:33:12.667Z,6.40
2023-04-19T05:35:41.127Z,6.53
2023-04-19T05:38:10.913Z,5.90
2023-04-19T05:40:40.417Z,8.50
2023-04-19T05:43:08.781Z,7.13
2023-04-19T05:45:36.892Z,8.43
2023-04-19T05:48:05.568Z,7.70
2023-04-19T05:50:34.076Z,9.43
2023-04-19T05:53:02.109Z,8.20
2023-04-19T05:55:31.946Z,6.13
2023-04-19T05:58:00.051Z,7.63
2023-04-19T06:00:28.889Z,6.67
2023-04-19T06:02:57.516Z,6.73
2023-04-19T06:05:26.314Z,7.50
2023-04-19T06:08:02.627Z,6.50
2023-04-19T06:10:44.525Z,6.47
2023-04-19T06:13:20.789Z,7.90
2023-04-19T06:15:49.240Z,7.93
2023-04-19T06:18:19.543Z,5.23
2023-04-19T06:20:48.612Z,6.33
2023-04-19T06:23:18.749Z,5.83
2023-04-19T06:25:49.312Z,8.77
2023-04-19T06:28:17.501Z,11.53
2023-04-19T06:30:45.679Z,11.17
2023-04-19T06:33:13.842Z,6.27
2023-04-19T06:35:42.258Z,6.47
2023-04-19T06:38:10.414Z,7.33
2023-04-19T06:40:38.575Z,8.57
2023-04-19T06:43:08.081Z,9.70
2023-04-19T06:45:36.563Z,7.87
2023-04-19T06:48:05.221Z,7.57
2023-04-19T06:50:33.398Z,5.83
2023-04-19T06:53:04.088Z,7.43
2023-04-19T06:55:34.164Z,10.53
2023-04-19T06:58:02.221Z,5.73
2023-04-19T07:00:32.088Z,7.30
2023-04-19T07:03:01.652Z,7.93
2023-04-19T07:05:30.355Z,6.77
2023-04-19T07:07:58.915Z,7.30
2023-04-19T07:10:27.143Z,6.30
2023-04-19T07:12:55.522Z,6.70
2023-04-19T07:15:24.013Z,6.43
2023-04-19T07:17:53.699Z,9.20
2023-04-19T07:20:22.198Z,8.20
2023-04-19T07:22:50.605Z,9.17
2023-04-19T07:25:19.138Z,7.30
2023-04-19T07:27:47.449Z,7.30
2023-04-19T07:30:15.842Z,7.27
2023-04-19T07:32:44.168Z,5.73
2023-04-19T07:35:14.218Z,6.90
2023-04-19T07:37:42.347Z,6.50
2023-04-19T07:40:12.149Z,8.57
2023-04-19T07:42:40.969Z,9.87
2023-04-19T07:45:10.356Z,8.43
2023-04-19T07:47:39.857Z,9.83
2023-04-19T07:50:09.556Z,8.40
2023-04-19T07:52:39.392Z,8.10
2023-04-19T07:55:08.764Z,7.93
2023-04-19T07:57:37.119Z,7.97
2023-04-19T08:00:06.310Z,8.57
2023-04-19T08:02:34.721Z,6.80
2023-04-19T08:05:03.973Z,8.03
2023-04-19T08:07:32.237Z,9.67
2023-04-19T08:10:01.993Z,7.63
2023-04-19T08:12:38.323Z,6.30
2023-04-19T08:15:29.628Z,6.63
2023-04-19T08:17:59.511Z,8.63
2023-04-19T08:20:27.785Z,7.10
2023-04-19T08:22:56.375Z,7.90
2023-04-19T08:25:28.809Z,8.50
2023-04-19T08:27:57.626Z,7.97
2023-04-19T08:30:26.019Z,8.97
2023-04-19T08:32:56.896Z,9.57
2023-04-19T08:35:25.785Z,8.97
2023-04-19T08:37:54.204Z,6.97
2023-04-19T08:40:22.506Z,9.30
2023-04-19T08:42:52.257Z,7.60
2023-04-19T08:48:00.704Z,8.93
2023-04-19T08:50:37.111Z,10.07
2023-04-19T08:53:23.807Z,8.60
2023-04-19T08:56:12.926Z,11.27
2023-04-19T09:01:33.629Z,10.87
2023-04-19T09:04:25.961Z,7.63
2023-04-19T09:06:54.608Z,9.33
2023-04-19T09:11:59.698Z,6.97
2023-04-19T09:14:31.712Z,9.97
2023-04-19T09:17:14.888Z,7.63
2023-04-19T09:19:52.133Z,7.13
2023-04-19T09:22:20.509Z,7.97
2023-04-19T09:27:27.737Z,7.53
2023-04-19T09:30:00.712Z,7.73
2023-04-19T09:32:31.880Z,7.87
2023-04-19T09:35:01.901Z,8.63
2023-04-19T09:37:56.814Z,7.53
2023-04-19T09:40:27.415Z,8.20
2023-04-19T09:45:31.241Z,8.60
2023-04-19T09:48:04.483Z,5.53
2023-04-19T09:50:34.030Z,7.10
2023-04-19T09:53:07.922Z,8.20
2023-04-19T09:55:48.612Z,6.80
2023-04-19T09:58:29.394Z,7.93
2023-04-19T10:01:14.967Z,6.23
2023-04-19T10:03:46.363Z,6.10
2023-04-19T10:06:35.662Z,6.73
2023-04-19T10:09:07.421Z,8.53
2023-04-19T10:11:41.540Z,4.50
2023-04-19T10:14:12.565Z,5.00
2023-04-19T10:16:42.334Z,8.17
2023-04-19T10:19:13.508Z,6.03
2023-04-19T10:21:43.865Z,4.53
2023-04-19T10:24:15.542Z,5.10
2023-04-19T10:27:12.370Z,5.57
2023-04-19T10:29:56.456Z,5.93
2023-04-19T10:32:28.537Z,4.53
2023-04-19T10:34:57.005Z,6.57
2023-04-19T10:37:27.579Z,4.07
2023-04-19T10:39:56.328Z,4.17
2023-04-19T10:42:24.530Z,3.17
2023-04-19T10:45:35.189Z,4.33
2023-04-19T10:48:06.373Z,3.40
2023-04-19T10:51:00.134Z,4.23
2023-04-19T10:53:48.477Z,3.43
2023-04-19T10:56:18.053Z,4.83
2023-04-19T10:59:22.949Z,4.93
2023-04-19T11:01:54.079Z,5.27
2023-04-19T11:04:47.900Z,4.70
2023-04-19T11:07:18.493Z,3.93
2023-04-19T11:09:47.648Z,2.50
2023-04-19T11:12:16.949Z,4.47
2023-04-19T11:14:47.091Z,4.83
2023-04-19T11:17:23.148Z,3.80
2023-04-19T11:19:58.107Z,3.73
2023-04-19T11:22:28.363Z,3.83
2023-04-19T11:24:56.394Z,5.73
2023-04-19T11:27:26.262Z,5.17
2023-04-19T11:30:04.449Z,4.30
2023-04-19T11:32:33.786Z,4.47
2023-04-19T11:35:09.048Z,3.27
2023-04-19T11:37:40.651Z,2.83
2023-04-19T11:40:10.835Z,5.37
2023-04-19T11:42:39.630Z,4.60
2023-04-19T11:45:18.659Z,3.53
2023-04-19T11:47:55.035Z,4.17
2023-04-19T11:50:35.296Z,3.87
2023-04-19T11:53:13.174Z,3.63
2023-04-19T11:55:44.439Z,5.50
2023-04-19T11:58:29.696Z,3.63
2023-04-19T12:01:01.060Z,4.27
2023-04-19T12:03:29.543Z,3.90
2023-04-19T12:06:01.066Z,4.97
2023-04-19T12:08:34.367Z,2.23
2023-04-19T12:11:03.732Z,3.93
2023-04-19T12:13:32.558Z,2.40
2023-04-19T12:16:02.686Z,2.93
2023-04-19T12:18:45.477Z,3.10
2023-04-19T12:21:26.545Z,4.07
2023-04-19T12:23:58.722Z,3.57
2023-04-19T12:26:28.533Z,2.37
2023-04-19T12:28:57.752Z,2.63
2023-04-19T12:31:26.086Z,2.37
2023-04-19T12:33:54.550Z,4.23
2023-04-19T12:36:24.332Z,2.63
2023-04-19T12:38:52.682Z,2.23
2023-04-19T12:41:21.317Z,6.03
2023-04-19T12:43:49.946Z,2.73
2023-04-19T12:46:18.519Z,4.43
2023-04-19T12:48:46.826Z,6.43
2023-04-19T12:51:16.340Z,4.83
2023-04-19T12:53:52.039Z,5.30
2023-04-19T12:56:20.334Z,5.17
2023-04-19T12:58:48.688Z,5.80
2023-04-19T13:01:17.214Z,4.97
2023-04-19T13:03:45.530Z,3.87
2023-04-19T13:06:15.601Z,2.73
2023-04-19T13:08:46.505Z,4.27
2023-04-19T13:11:23.198Z,5.30
2023-04-19T13:13:54.343Z,4.67
2023-04-19T13:16:23.359Z,4.53
2023-04-19T13:18:52.889Z,3.97
2023-04-19T13:21:21.710Z,4.60
2023-04-19T13:23:50.057Z,4.67
2023-04-19T13:26:19.616Z,4.23
2023-04-19T13:28:47.815Z,3.17
2023-04-19T13:31:16.060Z,4.73
2023-04-19T13:33:44.682Z,4.63
2023-04-19T13:36:13.079Z,3.67
2023-04-19T13:38:41.308Z,3.27
2023-04-19T13:41:09.614Z,3.20
2023-04-19T13:43:39.644Z,3.20
2023-04-19T13:46:07.886Z,6.43
2023-04-19T13:48:36.255Z,4.00
2023-04-19T13:51:04.724Z,3.57
2023-04-19T13:53:33.164Z,2.70
2023-04-19T13:56:01.357Z,2.23
2023-04-19T13:58:29.396Z,5.80
2023-04-19T14:00:59.108Z,5.13
2023-04-19T14:03:27.637Z,4.37
2023-04-19T14:05:56.764Z,2.90
2023-04-19T14:08:24.876Z,5.13
2023-04-19T14:10:53.064Z,2.93
2023-04-19T14:13:22.746Z,4.30
2023-04-19T14:15:50.991Z,2.97
2023-04-19T14:18:20.671Z,4.20
2023-04-19T14:20:49.452Z,3.23
2023-04-19T14:23:18.152Z,4.30
2023-04-19T14:25:46.368Z,4.70
2023-04-19T14:28:14.827Z,5.80
2023-04-19T14:30:43.250Z,4.13
2023-04-19T14:33:11.925Z,6.17
2023-04-19T14:35:43.098Z,7.80
2023-04-19T14:38:11.433Z,4.63
2023-04-19T14:40:39.813Z,3.53
2023-04-19T14:43:07.816Z,5.50
2023-04-19T14:45:36.213Z,3.47
2023-04-19T14:48:04.572Z,4.87
2023-04-19T14:50:32.699Z,6.67
2023-04-19T14:53:02.375Z,6.87
2023-04-19T14:55:30.601Z,5.80
2023-04-19T14:57:58.715Z,4.97
2023-04-19T15:00:27.014Z,9.00
2023-04-19T15:02:55.486Z,9.00
2023-04-19T15:05:25.245Z,5.63
2023-04-19T15:07:53.941Z,6.40
2023-04-19T15:10:23.420Z,3.23
2023-04-19T15:12:51.636Z,4.27
2023-04-19T15:15:20.026Z,5.07
2023-04-19T15:17:48.216Z,2.97
2023-04-19T15:20:16.969Z,8.80
2023-04-19T15:22:45.231Z,5.63
2023-04-19T15:25:17.095Z,7.83
2023-04-19T15:27:46.551Z,5.23
2023-04-19T15:30:15.461Z,6.53
2023-04-19T15:32:44.654Z,3.13
2023-04-19T15:35:13.189Z,5.30
2023-04-19T15:37:42.093Z,4.67
2023-04-19T15:40:12.724Z,5.20
2023-04-19T15:42:41.326Z,5.43
2023-04-19T15:45:12.418Z,6.93
2023-04-19T15:47:40.966Z,5.57
2023-04-19T15:50:11.220Z,4.27
2023-04-19T15:52:39.312Z,5.53
2023-04-19T15:55:07.990Z,3.73
2023-04-19T15:57:36.089Z,5.83
2023-04-19T16:00:05.487Z,4.90
2023-04-19T16:02:37.539Z,5.93
2023-04-19T16:05:06.635Z,3.40
2023-04-19T16:07:35.157Z,5.47
2023-04-19T16:10:03.609Z,4.10
2023-04-19T16:12:31.811Z,4.83
2023-04-19T16:15:00.446Z,4.03
2023-04-19T16:17:28.574Z,5.87
2023-04-19T16:19:58.455Z,3.97
2023-04-19T16:22:26.572Z,5.03
2023-04-19T16:24:55.621Z,3.83
2023-04-19T16:27:23.877Z,4.57
2023-04-19T16:29:52.108Z,3.30
2023-04-19T16:32:22.049Z,5.93
2023-04-19T16:34:50.724Z,3.70
2023-04-19T16:37:20.849Z,3.87
2023-04-19T16:39:49.079Z,4.63
2023-04-19T16:42:17.525Z,3.10
2023-04-19T16:44:46.670Z,4.90
2023-04-19T16:47:15.086Z,2.97
2023-04-19T16:49:43.584Z,4.63
2023-04-19T16:52:11.774Z,3.53
2023-04-19T16:54:41.472Z,3.27
2023-04-19T16:57:10.398Z,3.10
2023-04-19T16:59:38.717Z,4.60
2023-04-19T17:02:08.487Z,5.50
2023-04-19T17:04:37.439Z,6.50
2023-04-19T17:07:05.828Z,6.50
2023-04-19T17:09:34.550Z,5.13
2023-04-19T17:12:04.563Z,4.77
2023-04-19T17:14:32.971Z,3.13
2023-04-19T17:17:02.820Z,3.17
2023-04-19T17:19:31.190Z,4.73
2023-04-19T17:22:05.278Z,5.37
2023-04-19T17:24:33.803Z,8.23
2023-04-19T17:27:03.725Z,5.03
2023-04-19T17:29:32.699Z,2.77
2023-04-19T17:32:01.541Z,5.57
2023-04-19T17:34:30.053Z,6.47
2023-04-19T17:37:00.387Z,4.13
2023-04-19T17:39:29.158Z,3.07
2023-04-19T17:41:57.911Z,3.67
2023-04-19T17:44:27.955Z,4.63
2023-04-19T17:46:56.660Z,3.37
2023-04-19T17:49:26.733Z,3.87
2023-04-19T17:51:56.905Z,7.70
2023-04-19T17:54:25.348Z,6.73
2023-04-19T17:56:54.727Z,4.53
2023-04-19T17:59:22.808Z,4.20
2023-04-19T18:01:52.711Z,4.43
2023-04-19T18:04:21.830Z,3.57
2023-04-19T18:06:50.251Z,3.53
2023-04-19T18:09:19.409Z,5.63
2023-04-19T18:11:47.959Z,4.90
2023-04-19T18:14:16.452Z,4.00
2023-04-19T18:16:44.831Z,6.17
2023-04-19T18:19:15.234Z,3.80
2023-04-19T18:21:43.881Z,3.73
2023-04-19T18:24:12.307Z,4.20
2023-04-19T18:26:42.660Z,4.53
2023-04-19T18:29:12.393Z,2.87
2023-04-19T18:31:40.850Z,3.17
2023-04-19T18:34:11.273Z,2.10
2023-04-19T18:36:42.311Z,2.20
2023-04-19T18:39:10.741Z,3.47
2023-04-19T18:41:39.041Z,2.83
2023-04-19T18:44:35.419Z,4.27
2023-04-19T18:46:55.656Z,2.53
2023-04-19T18:49:23.889Z,3.07
2023-04-19T18:51:53.764Z,2.83
2023-04-19T18:54:21.859Z,5.67
2023-04-19T18:57:21.183Z,3.33
2023-04-19T18:59:38.757Z,5.70
2023-04-19T19:02:07.464Z,4.00
2023-04-19T19:04:51.239Z,4.50
2023-04-19T19:09:57.128Z,5.13
2023-04-19T19:12:25.688Z,4.63
2023-04-19T19:14:54.077Z,4.07
2023-04-19T19:17:24.551Z,4.00
2023-04-19T19:19:52.724Z,6.30
2023-04-19T19:22:27.923Z,4.10
2023-04-19T19:24:58.085Z,7.03
2023-04-19T19:27:26.527Z,5.10
2023-04-19T19:29:55.063Z,6.30
2023-04-19T19:32:23.455Z,3.17
2023-04-19T19:34:56.584Z,3.23
2023-04-19T19:37:30.676Z,3.47
2023-04-19T19:40:04.167Z,3.93
2023-04-19T19:42:34.439Z,4.00
2023-04-19T19:45:04.302Z,4.33
2023-04-19T19:47:35.520Z,5.33
2023-04-19T19:50:46.633Z,2.83
2023-04-19T19:52:53.940Z,4.70
2023-04-19T19:55:24.206Z,3.70
2023-04-19T20:00:44.061Z,3.63
2023-04-19T20:03:12.807Z,4.40
2023-04-19T20:05:41.394Z,4.70
2023-04-19T20:08:12.027Z,4.67
2023-04-19T20:10:44.259Z,7.60
2023-04-19T20:13:13.411Z,7.60
2023-04-19T20:15:42.458Z,2.90
2023-04-19T20:18:10.835Z,5.97
2023-04-19T20:20:39.131Z,6.73
2023-04-19T20:23:07.386Z,5.93
2023-04-19T20:25:35.588Z,3.87
2023-04-19T20:28:07.049Z,4.63
2023-04-19T20:30:36.477Z,3.93
2023-04-19T20:33:05.072Z,4.63
2023-04-19T20:35:34.743Z,6.43
2023-04-19T20:38:03.496Z,8.87
2023-04-19T20:40:33.260Z,5.20
2023-04-19T20:43:01.629Z,3.83
2023-04-19T20:45:31.600Z,5.83
2023-04-19T20:47:59.837Z,6.13
2023-04-19T20:50:28.303Z,5.53
2023-04-19T20:52:56.792Z,5.90
2023-04-19T20:55:25.406Z,5.47
2023-04-19T20:57:54.020Z,7.57
2023-04-19T21:00:22.549Z,6.33
2023-04-19T21:02:52.552Z,4.47
2023-04-19T21:05:21.103Z,6.00
2023-04-19T21:07:49.316Z,6.73
2023-04-19T21:10:17.507Z,5.70
2023-04-19T21:12:46.135Z,6.93
2023-04-19T21:15:14.174Z,6.67
2023-04-19T21:17:42.851Z,5.67
2023-04-19T21:20:15.965Z,5.00
2023-04-19T21:22:45.832Z,6.53
2023-04-19T21:25:14.717Z,6.33
2023-04-19T21:27:43.860Z,9.67
2023-04-19T21:30:14.438Z,6.13
2023-04-19T21:32:42.906Z,6.37
2023-04-19T21:35:12.586Z,7.90
2023-04-19T21:37:41.147Z,6.50
2023-04-19T21:40:10.326Z,5.97
2023-04-19T21:42:38.870Z,6.10
2023-04-19T21:45:08.544Z,9.73
2023-04-19T21:47:36.780Z,4.40
2023-04-19T21:50:05.512Z,4.90
2023-04-19T21:52:35.664Z,5.57
2023-04-19T21:55:03.860Z,6.20
2023-04-19T21:57:31.948Z,6.90
2023-04-19T22:00:00.297Z,6.90
2023-04-19T22:02:28.511Z,9.67
2023-04-19T22:04:56.794Z,7.13
2023-04-19T22:07:25.420Z,6.40
2023-04-19T22:09:55.152Z,5.70
2023-04-19T22:12:23.592Z,4.90
2023-04-19T22:14:52.140Z,7.03
2023-04-19T22:17:20.923Z,5.57
2023-04-19T22:19:49.160Z,10.53
2023-04-19T22:22:17.455Z,5.20
2023-04-19T22:24:57.039Z,5.43
2023-04-19T22:27:27.255Z,5.93
2023-04-19T22:29:55.593Z,7.50
2023-04-19T22:32:24.065Z,6.93
2023-04-19T22:34:52.131Z,7.40
2023-04-19T22:37:20.614Z,5.60
2023-04-19T22:39:48.669Z,11.00
2023-04-19T22:42:17.239Z,7.87
2023-04-19T22:44:46.755Z,5.80
2023-04-19T22:47:16.634Z,6.67
2023-04-19T22:49:45.225Z,5.83
2023-04-19T22:52:14.654Z,5.40
2023-04-19T22:54:43.060Z,4.33
2023-04-19T22:57:12.145Z,5.13
2023-04-19T22:59:40.452Z,9.20
2023-04-19T23:02:10.009Z,7.53
2023-04-19T23:04:39.490Z,5.97
2023-04-19T23:07:08.360Z,7.13
2023-04-19T23:09:39.490Z,9.20
2023-04-19T23:12:08.551Z,6.20
2023-04-19T23:14:38.708Z,5.33
2023-04-19T23:17:07.548Z,4.93
2023-04-19T23:19:38.875Z,6.60
2023-04-19T23:22:07.594Z,5.00
2023-04-19T23:24:37.060Z,5.43
2023-04-19T23:27:05.450Z,5.03
2023-04-19T23:29:33.515Z,7.57
2023-04-19T23:32:02.642Z,10.97
2023-04-19T23:34:30.782Z,10.63
2023-04-19T23:37:00.871Z,7.13
2023-04-19T23:39:29.709Z,5.63
2023-04-19T23:41:58.079Z,7.93
2023-04-19T23:44:27.063Z,7.03
2023-04-19T23:46:55.226Z,6.77
2023-04-19T23:49:23.643Z,9.90
2023-04-19T23:51:51.753Z,6.40
2023-04-19T23:54:25.822Z,7.43
2023-04-19T23:56:54.574Z,6.80
2023-04-19T23:59:26.880Z,8.80
